createdAt,value
2022-11-06T00:02:01.827Z,20.17
2022-11-06T00:04:30.353Z,18.70
2022-11-06T00:06:57.916Z,21.07
2022-11-06T00:09:25.588Z,21.65
2022-11-06T00:11:53.298Z,20.35
2022-11-06T00:14:21.089Z,21.93
2022-11-06T00:16:48.791Z,21.70
2022-11-06T00:19:18.332Z,20.57
2022-11-06T00:21:46.008Z,21.17
2022-11-06T00:24:15.393Z,23.83
2022-11-06T00:26:43.395Z,22.62
2022-11-06T00:29:14.169Z,23.52
2022-11-06T00:31:42.530Z,23.83
2022-11-06T00:34:10.969Z,19.77
2022-11-06T00:36:38.417Z,22.17
2022-11-06T00:39:06.068Z,22.77
2022-11-06T00:41:33.425Z,26.00
2022-11-06T00:44:02.815Z,26.02
2022-11-06T00:46:31.139Z,26.23
2022-11-06T00:48:58.707Z,22.85
2022-11-06T00:51:33.382Z,22.42
2022-11-06T00:54:04.019Z,22.25
2022-11-06T00:56:32.491Z,21.17
2022-11-06T00:59:04.924Z,21.93
2022-11-06T01:01:37.628Z,21.23
2022-11-06T01:04:13.187Z,21.37
2022-11-06T01:06:45.330Z,19.30
2022-11-06T01:09:16.656Z,25.08
2022-11-06T01:14:20.471Z,20.90
2022-11-06T01:16:48.858Z,23.32
2022-11-06T01:19:19.637Z,19.75
2022-11-06T01:21:52.580Z,17.07
2022-11-06T01:24:26.143Z,17.52
2022-11-06T01:27:26.001Z,20.77
2022-11-06T01:29:27.110Z,26.75
2022-11-06T01:31:54.862Z,23.85
2022-11-06T01:34:22.543Z,22.80
2022-11-06T01:36:50.042Z,20.95
2022-11-06T01:39:17.872Z,24.85
2022-11-06T01:41:49.840Z,21.42
2022-11-06T01:44:46.751Z,21.62
2022-11-06T01:47:26.685Z,21.87
2022-11-06T01:49:59.758Z,23.73
2022-11-06T01:52:30.011Z,21.52
2022-11-06T01:55:02.338Z,21.52
2022-11-06T01:57:30.110Z,22.27
2022-11-06T01:59:57.889Z,20.65
2022-11-06T02:02:25.636Z,24.63
2022-11-06T02:04:53.416Z,25.08
2022-11-06T02:07:21.108Z,29.42
2022-11-06T02:09:48.728Z,48.05
2022-11-06T02:12:21.770Z,32.42
2022-11-06T02:15:11.670Z,23.05
2022-11-06T02:18:15.489Z,25.60
2022-11-06T02:21:07.089Z,28.75
2022-11-06T02:24:02.607Z,37.88
2022-11-06T02:26:55.689Z,27.10
2022-11-06T02:29:39.407Z,22.32
2022-11-06T02:32:24.594Z,21.20
2022-11-06T02:35:05.603Z,22.35
2022-11-06T02:37:36.955Z,21.40
2022-11-06T02:40:09.575Z,20.95
2022-11-06T02:42:45.700Z,20.88
2022-11-06T02:45:17.449Z,18.65
2022-11-06T02:47:49.952Z,19.65
2022-11-06T02:50:29.237Z,18.90
2022-11-06T02:53:06.472Z,19.75
2022-11-06T02:55:45.268Z,21.87
2022-11-06T02:58:17.271Z,21.62
2022-11-06T03:00:50.224Z,24.10
2022-11-06T03:03:23.167Z,19.65
2022-11-06T03:06:08.361Z,22.00
2022-11-06T03:08:43.294Z,23.87
2022-11-06T03:11:27.662Z,21.57
2022-11-06T03:14:12.442Z,19.98
2022-11-06T03:17:11.785Z,17.77
2022-11-06T03:19:53.752Z,20.55
2022-11-06T03:22:50.754Z,21.17
2022-11-06T03:25:35.622Z,20.30
2022-11-06T03:28:15.022Z,18.90
2022-11-06T03:30:48.286Z,19.45
2022-11-06T03:33:21.248Z,26.27
2022-11-06T03:35:56.744Z,21.95
2022-11-06T03:38:45.790Z,21.52
2022-11-06T03:41:27.070Z,21.48
2022-11-06T03:43:57.798Z,18.52
2022-11-06T03:46:28.208Z,19.82
2022-11-06T03:49:00.561Z,22.22
2022-11-06T03:51:45.429Z,25.48
2022-11-06T03:54:33.451Z,27.32
2022-11-06T03:57:05.497Z,18.57
2022-11-06T03:59:38.381Z,20.17
2022-11-06T04:02:07.238Z,18.05
2022-11-06T04:04:45.621Z,16.62
2022-11-06T04:07:20.707Z,19.40
2022-11-06T04:10:15.367Z,16.05
2022-11-06T04:13:02.844Z,17.17
2022-11-06T04:15:42.110Z,16.82
2022-11-06T04:18:15.805Z,19.37
2022-11-06T04:21:10.556Z,20.52
2022-11-06T04:23:46.528Z,19.75
2022-11-06T04:26:37.490Z,23.25
2022-11-06T04:29:20.004Z,18.82
2022-11-06T04:32:01.856Z,23.20
2022-11-06T04:34:56.002Z,21.33
2022-11-06T04:40:14.758Z,18.85
2022-11-06T04:43:15.127Z,26.17
2022-11-06T04:45:47.042Z,23.95
2022-11-06T04:48:16.856Z,25.88
2022-11-06T04:50:55.260Z,30.05
2022-11-06T04:53:24.325Z,30.00
2022-11-06T04:55:56.215Z,32.70
2022-11-06T04:58:23.939Z,34.92
2022-11-06T05:00:51.955Z,29.98
2022-11-06T05:03:19.535Z,29.80
2022-11-06T05:05:47.075Z,30.65
2022-11-06T05:08:18.691Z,28.98
2022-11-06T05:10:47.206Z,34.05
2022-11-06T05:13:15.770Z,28.62
2022-11-06T05:15:43.251Z,24.72
2022-11-06T05:18:11.505Z,24.02
2022-11-06T05:20:39.220Z,37.23
2022-11-06T05:23:07.030Z,21.33
2022-11-06T05:25:39.580Z,24.92
2022-11-06T05:28:08.306Z,25.32
2022-11-06T05:30:37.053Z,26.97
2022-11-06T05:33:04.835Z,22.95
2022-11-06T05:35:32.848Z,30.75
2022-11-06T05:38:02.639Z,29.32
2022-11-06T05:40:30.931Z,26.00
2022-11-06T05:42:58.668Z,31.50
2022-11-06T05:45:26.121Z,34.30
2022-11-06T05:47:53.688Z,33.70
2022-11-06T05:50:21.509Z,29.90
2022-11-06T05:52:49.088Z,29.30
2022-11-06T05:55:16.891Z,34.78
2022-11-06T05:57:44.650Z,32.17
2022-11-06T06:00:14.148Z,28.83
2022-11-06T06:02:43.232Z,24.30
2022-11-06T06:05:10.968Z,26.95
2022-11-06T06:07:40.308Z,26.80
2022-11-06T06:10:09.119Z,28.95
2022-11-06T06:12:38.737Z,25.02
2022-11-06T06:15:08.640Z,25.00
2022-11-06T06:17:36.331Z,28.57
2022-11-06T06:20:05.342Z,21.65
2022-11-06T06:22:32.842Z,24.30
2022-11-06T06:25:00.675Z,34.20
2022-11-06T06:27:28.325Z,27.25
2022-11-06T06:29:55.817Z,27.87
2022-11-06T06:32:23.512Z,26.17
2022-11-06T06:34:51.223Z,29.67
2022-11-06T06:37:20.145Z,27.73
2022-11-06T06:39:48.045Z,28.83
2022-11-06T06:42:15.681Z,27.22
2022-11-06T06:44:43.185Z,25.50
2022-11-06T06:47:10.794Z,31.87
2022-11-06T06:49:38.140Z,29.75
2022-11-06T06:52:05.874Z,36.53
2022-11-06T06:54:33.441Z,28.52
2022-11-06T06:57:00.845Z,32.58
2022-11-06T06:59:29.015Z,33.05
2022-11-06T07:01:57.372Z,39.85
2022-11-06T07:04:24.980Z,38.75
2022-11-06T07:06:55.958Z,45.83
2022-11-06T07:09:23.638Z,43.73
2022-11-06T07:11:51.239Z,34.92
2022-11-06T07:14:18.869Z,36.73
2022-11-06T07:16:51.035Z,44.25
2022-11-06T07:19:16.647Z,29.90
2022-11-06T07:21:44.076Z,28.52
2022-11-06T07:24:11.819Z,26.68
2022-11-06T07:26:39.475Z,28.07
2022-11-06T07:29:07.817Z,31.73
2022-11-06T07:31:35.265Z,31.70
2022-11-06T07:34:02.808Z,26.62
2022-11-06T07:36:32.242Z,32.83
2022-11-06T07:38:59.842Z,42.62
2022-11-06T07:41:27.199Z,28.12
2022-11-06T07:43:54.891Z,25.52
2022-11-06T07:46:22.259Z,19.95
2022-11-06T07:48:49.866Z,20.27
2022-11-06T07:51:17.893Z,24.72
2022-11-06T07:53:45.488Z,22.40
2022-11-06T07:56:13.145Z,26.27
2022-11-06T07:58:40.701Z,41.50
2022-11-06T08:01:17.958Z,45.40
2022-11-06T08:03:43.771Z,44.58
2022-11-06T08:06:11.596Z,38.70
2022-11-06T08:08:39.284Z,29.12
2022-11-06T08:11:10.035Z,30.70
2022-11-06T08:13:38.800Z,27.25
2022-11-06T08:16:10.476Z,19.50
2022-11-06T08:18:38.352Z,19.87
2022-11-06T08:21:07.407Z,13.58
2022-11-06T08:23:36.156Z,12.63
2022-11-06T08:26:05.920Z,12.28
2022-11-06T08:28:34.423Z,10.78
2022-11-06T08:31:08.947Z,11.70
2022-11-06T08:33:38.578Z,11.88
2022-11-06T08:36:08.643Z,10.00
2022-11-06T08:38:36.389Z,10.32
2022-11-06T08:41:09.002Z,11.38
2022-11-06T08:43:37.945Z,13.27
2022-11-06T08:46:07.777Z,12.53
2022-11-06T08:48:36.224Z,9.70
2022-11-06T08:51:04.855Z,7.53
2022-11-06T08:53:32.536Z,11.43
2022-11-06T08:56:03.715Z,8.20
2022-11-06T08:58:31.386Z,9.35
2022-11-06T09:00:58.971Z,8.55
2022-11-06T09:03:26.628Z,7.72
2022-11-06T09:05:54.188Z,10.18
2022-11-06T09:08:21.614Z,12.80
2022-11-06T09:10:49.932Z,9.23
2022-11-06T09:13:19.094Z,6.95
2022-11-06T09:15:46.590Z,8.88
2022-11-06T09:18:14.216Z,9.03
2022-11-06T09:20:41.864Z,9.08
2022-11-06T09:23:11.878Z,28.67
2022-11-06T09:25:39.559Z,15.68
2022-11-06T09:28:07.239Z,18.70
2022-11-06T09:30:34.994Z,17.27
2022-11-06T09:33:03.376Z,14.18
2022-11-06T09:35:33.762Z,8.58
2022-11-06T09:38:05.981Z,8.53
2022-11-06T09:40:44.808Z,8.15
2022-11-06T09:46:28.674Z,7.70
2022-11-06T09:49:07.989Z,9.65
2022-11-06T09:51:43.992Z,6.95
2022-11-06T09:54:38.318Z,8.65
2022-11-06T09:57:22.939Z,17.50
2022-11-06T09:59:51.464Z,9.68
2022-11-06T10:02:33.918Z,7.42
2022-11-06T10:05:09.825Z,8.35
2022-11-06T10:07:43.675Z,8.08
2022-11-06T10:10:22.103Z,9.18
2022-11-06T10:13:17.788Z,11.68
2022-11-06T10:15:56.643Z,6.65
2022-11-06T10:18:35.443Z,7.22
2022-11-06T10:21:20.847Z,9.00
2022-11-06T10:24:00.479Z,11.20
2022-11-06T10:26:36.697Z,8.60
2022-11-06T10:29:18.900Z,9.83
2022-11-06T10:32:00.488Z,9.18
2022-11-06T10:34:39.234Z,8.75
2022-11-06T10:37:17.898Z,16.87
2022-11-06T10:39:46.421Z,10.10
2022-11-06T10:42:36.748Z,8.48
2022-11-06T10:45:18.200Z,9.43
2022-11-06T10:47:53.407Z,10.00
2022-11-06T10:50:24.675Z,8.83
2022-11-06T10:53:18.615Z,8.93
2022-11-06T10:56:00.167Z,8.28
2022-11-06T10:58:32.078Z,7.53
2022-11-06T11:01:03.083Z,7.05
2022-11-06T11:03:38.652Z,7.70
2022-11-06T11:06:06.999Z,13.10
2022-11-06T11:08:50.743Z,8.73
2022-11-06T11:11:25.611Z,10.58
2022-11-06T11:14:04.432Z,9.88
2022-11-06T11:16:42.215Z,8.15
2022-11-06T11:19:27.342Z,8.13
2022-11-06T11:22:20.227Z,8.68
2022-11-06T11:25:07.204Z,11.13
2022-11-06T11:27:44.339Z,7.83
2022-11-06T11:30:22.947Z,8.73
2022-11-06T11:32:50.993Z,8.60
2022-11-06T11:35:23.825Z,7.47
2022-11-06T11:37:51.410Z,10.78
2022-11-06T11:40:38.302Z,12.15
2022-11-06T11:43:29.256Z,9.80
2022-11-06T11:46:11.766Z,8.10
2022-11-06T11:48:46.343Z,9.13
2022-11-06T11:51:44.638Z,8.85
2022-11-06T11:54:17.833Z,10.18
2022-11-06T11:57:09.188Z,8.95
2022-11-06T11:59:43.261Z,10.00
2022-11-06T12:02:26.955Z,9.35
2022-11-06T12:05:02.632Z,7.97
2022-11-06T12:07:35.008Z,7.70
2022-11-06T12:10:07.449Z,8.00
2022-11-06T12:12:36.819Z,11.28
2022-11-06T12:15:24.848Z,6.75
2022-11-06T12:18:06.638Z,7.90
2022-11-06T12:20:57.813Z,9.05
2022-11-06T12:23:33.805Z,13.55
2022-11-06T12:26:27.907Z,9.60
2022-11-06T12:29:11.707Z,10.00
2022-11-06T12:32:03.091Z,8.53
2022-11-06T12:34:54.301Z,9.08
2022-11-06T12:37:42.715Z,9.50
2022-11-06T12:40:35.189Z,9.40
2022-11-06T12:43:26.547Z,15.28
2022-11-06T12:46:28.913Z,10.60
2022-11-06T12:49:38.508Z,15.58
2022-11-06T12:52:42.299Z,9.25
2022-11-06T12:55:20.919Z,10.90
2022-11-06T12:58:15.710Z,10.90
2022-11-06T13:01:19.711Z,16.12
2022-11-06T13:04:05.181Z,10.35
2022-11-06T13:06:57.852Z,12.35
2022-11-06T13:10:04.293Z,13.50
2022-11-06T13:12:56.052Z,12.43
2022-11-06T13:15:53.340Z,13.35
2022-11-06T13:18:32.123Z,14.83
2022-11-06T13:21:09.322Z,16.65
2022-11-06T13:23:45.038Z,21.73
2022-11-06T13:26:38.516Z,17.30
2022-11-06T13:29:13.783Z,18.77
2022-11-06T13:31:55.237Z,24.63
2022-11-06T13:34:26.768Z,55.88
2022-11-06T13:36:56.011Z,51.10
2022-11-06T13:39:37.925Z,19.85
2022-11-06T13:42:13.883Z,11.90
2022-11-06T13:44:41.544Z,16.73
2022-11-06T13:47:31.329Z,30.27
2022-11-06T13:50:13.236Z,31.15
2022-11-06T13:52:58.601Z,39.10
2022-11-06T13:55:40.400Z,39.95
2022-11-06T13:58:47.043Z,32.40
2022-11-06T14:01:34.861Z,26.52
2022-11-06T14:04:27.900Z,30.00
2022-11-06T14:06:59.081Z,23.60
2022-11-06T14:09:29.777Z,43.70
2022-11-06T14:12:05.200Z,89.40
2022-11-06T14:14:34.220Z,110.45
2022-11-06T14:17:19.019Z,124.05
2022-11-06T14:19:57.870Z,121.37
2022-11-06T14:22:32.556Z,116.73
2022-11-06T14:25:02.377Z,99.97
2022-11-06T14:27:37.884Z,67.60
2022-11-06T14:30:57.525Z,59.50
2022-11-06T14:33:00.177Z,54.60
2022-11-06T14:35:38.831Z,56.35
2022-11-06T14:38:33.382Z,54.40
2022-11-06T14:41:01.807Z,75.03
2022-11-06T14:43:34.731Z,93.12
2022-11-06T14:46:22.519Z,100.45
2022-11-06T14:48:53.259Z,86.70
2022-11-06T14:51:29.144Z,85.83
2022-11-06T14:54:01.121Z,97.60
2022-11-06T14:56:34.843Z,74.58
2022-11-06T14:59:10.669Z,65.42
2022-11-06T15:01:38.344Z,65.67
2022-11-06T15:04:19.415Z,69.10
2022-11-06T15:06:51.850Z,88.50
2022-11-06T15:09:30.759Z,111.57
2022-11-06T15:12:01.607Z,177.60
2022-11-06T15:14:34.542Z,178.62
2022-11-06T15:17:15.768Z,145.28
2022-11-06T15:19:54.894Z,148.45
2022-11-06T15:22:40.007Z,128.10
2022-11-06T15:25:29.625Z,130.05
2022-11-06T15:28:14.644Z,116.15
2022-11-06T15:31:14.291Z,128.50
2022-11-06T15:34:04.520Z,108.80
2022-11-06T15:36:39.335Z,105.95
2022-11-06T15:39:32.858Z,100.18
2022-11-06T15:42:00.391Z,90.30
2022-11-06T15:44:28.045Z,93.30
2022-11-06T15:46:58.564Z,77.05
2022-11-06T15:49:26.609Z,92.82
2022-11-06T15:52:02.873Z,99.85
2022-11-06T15:54:37.615Z,91.90
2022-11-06T15:57:19.142Z,64.45
2022-11-06T15:59:46.920Z,57.33
2022-11-06T16:02:24.595Z,51.70
2022-11-06T16:04:52.796Z,47.98
2022-11-06T16:07:21.660Z,48.70
2022-11-06T16:09:51.210Z,84.52
2022-11-06T16:12:19.151Z,73.00
2022-11-06T16:14:46.719Z,60.33
2022-11-06T16:17:24.725Z,73.83
2022-11-06T16:19:56.624Z,89.13
2022-11-06T16:22:30.811Z,87.27
2022-11-06T16:25:04.773Z,89.87
2022-11-06T16:27:39.894Z,113.50
2022-11-06T16:30:12.112Z,109.40
2022-11-06T16:32:41.664Z,125.55
2022-11-06T16:35:36.161Z,99.85
2022-11-06T16:38:44.486Z,86.87
2022-11-06T16:41:00.214Z,90.12
2022-11-06T16:43:27.733Z,109.72
2022-11-06T16:46:02.916Z,98.27
2022-11-06T16:48:44.401Z,93.00
2022-11-06T16:51:30.761Z,76.22
2022-11-06T16:54:00.304Z,63.60
2022-11-06T16:56:31.889Z,108.60
2022-11-06T16:59:06.767Z,198.90
2022-11-06T17:01:43.150Z,200.68
2022-11-06T17:04:26.089Z,174.53
2022-11-06T17:06:54.166Z,145.70
2022-11-06T17:09:35.240Z,138.47
2022-11-06T17:12:05.542Z,118.90
2022-11-06T17:14:33.986Z,80.85
2022-11-06T17:17:03.074Z,78.67
2022-11-06T17:19:30.619Z,86.78
2022-11-06T17:21:58.110Z,91.80
2022-11-06T17:24:40.831Z,102.07
2022-11-06T17:26:54.753Z,116.93
2022-11-06T17:29:22.601Z,136.43
2022-11-06T17:31:51.459Z,133.00
2022-11-06T17:34:19.385Z,142.47
2022-11-06T17:36:47.048Z,143.30
2022-11-06T17:39:14.396Z,134.97
2022-11-06T17:41:42.101Z,134.10
2022-11-06T17:44:12.611Z,133.87
2022-11-06T17:46:43.615Z,113.52
2022-11-06T17:49:17.546Z,107.60
2022-11-06T17:52:00.897Z,101.80
2022-11-06T17:54:32.775Z,98.80
2022-11-06T17:57:04.662Z,112.57
2022-11-06T17:59:33.208Z,131.10
2022-11-06T18:02:01.677Z,121.35
2022-11-06T18:04:30.325Z,124.53
2022-11-06T18:06:57.877Z,130.10
2022-11-06T18:09:25.645Z,135.80
2022-11-06T18:11:54.860Z,126.22
2022-11-06T18:14:24.782Z,117.03
2022-11-06T18:16:53.282Z,103.85
2022-11-06T18:19:23.109Z,92.55
2022-11-06T18:21:51.110Z,74.70
2022-11-06T18:24:18.684Z,79.30
2022-11-06T18:26:46.283Z,81.22
2022-11-06T18:29:14.036Z,85.75
2022-11-06T18:31:41.959Z,82.82
2022-11-06T18:34:19.749Z,70.28
2022-11-06T18:36:44.856Z,64.82
2022-11-06T18:39:12.577Z,66.00
2022-11-06T18:41:40.219Z,69.90
2022-11-06T18:44:07.868Z,77.67
2022-11-06T18:46:35.549Z,85.05
2022-11-06T18:49:03.070Z,93.82
2022-11-06T18:51:36.357Z,86.42
2022-11-06T18:54:07.459Z,75.95
2022-11-06T18:56:36.808Z,73.95
2022-11-06T18:59:11.636Z,66.07
2022-11-06T19:01:39.516Z,65.72
2022-11-06T19:04:09.355Z,67.95
2022-11-06T19:06:38.698Z,65.40
2022-11-06T19:09:07.966Z,66.72
2022-11-06T19:11:35.460Z,69.42
2022-11-06T19:14:02.979Z,69.20
2022-11-06T19:16:30.619Z,63.25
2022-11-06T19:21:28.511Z,46.25
2022-11-06T19:24:02.998Z,40.52
2022-11-06T19:26:31.839Z,52.08
2022-11-06T19:28:57.621Z,37.70
2022-11-06T19:31:27.194Z,33.55
2022-11-06T19:33:56.900Z,34.85
2022-11-06T19:36:24.645Z,41.35
2022-11-06T19:38:53.034Z,38.28
2022-11-06T19:41:20.970Z,37.17
2022-11-06T19:43:48.481Z,31.50
2022-11-06T19:46:22.346Z,34.30
2022-11-06T19:48:46.692Z,35.38
2022-11-06T19:51:16.257Z,42.55
2022-11-06T19:53:43.678Z,44.30
2022-11-06T19:56:14.535Z,46.00
2022-11-06T19:58:42.610Z,57.30
2022-11-06T20:01:12.628Z,60.70
2022-11-06T20:03:41.500Z,65.32
2022-11-06T20:06:09.570Z,52.78
2022-11-06T20:08:38.235Z,44.55
2022-11-06T20:11:08.132Z,41.08
2022-11-06T20:13:36.100Z,37.03
2022-11-06T20:16:09.600Z,40.58
2022-11-06T20:18:37.525Z,46.00
2022-11-06T20:21:09.505Z,55.30
2022-11-06T20:23:37.920Z,51.20
2022-11-06T20:26:06.178Z,43.25
2022-11-06T20:28:34.208Z,38.33
2022-11-06T20:31:08.796Z,38.42
2022-11-06T20:33:37.404Z,45.12
2022-11-06T20:36:26.489Z,42.58
2022-11-06T20:38:57.434Z,45.92
2022-11-06T20:41:26.491Z,49.42
2022-11-06T20:43:54.593Z,35.70
2022-11-06T20:46:23.217Z,27.25
2022-11-06T20:48:51.448Z,26.20
2022-11-06T20:51:23.190Z,30.70
2022-11-06T20:53:51.382Z,33.48
2022-11-06T20:56:21.873Z,38.83
2022-11-06T20:58:49.120Z,40.20
2022-11-06T21:01:20.206Z,32.98
2022-11-06T21:03:49.584Z,28.02
2022-11-06T21:06:19.656Z,39.03
2022-11-06T21:08:48.291Z,32.42
2022-11-06T21:11:19.790Z,40.17
2022-11-06T21:13:50.168Z,47.35
2022-11-06T21:16:22.768Z,34.18
2022-11-06T21:18:51.524Z,26.05
2022-11-06T21:21:22.946Z,26.57
2022-11-06T21:23:52.247Z,25.25
2022-11-06T21:26:29.779Z,29.72
2022-11-06T21:28:58.347Z,29.92
2022-11-06T21:31:30.209Z,31.40
2022-11-06T21:34:01.979Z,31.07
2022-11-06T21:36:33.663Z,23.38
2022-11-06T21:39:08.640Z,21.75
2022-11-06T21:41:38.058Z,22.48
2022-11-06T21:44:07.152Z,23.42
2022-11-06T21:46:35.269Z,23.30
2022-11-06T21:49:02.905Z,23.30
2022-11-06T21:51:32.688Z,21.97
2022-11-06T21:54:19.740Z,17.23
2022-11-06T21:56:50.258Z,19.87
2022-11-06T21:59:22.297Z,17.20
2022-11-06T22:01:49.987Z,16.42
2022-11-06T22:04:17.723Z,18.27
2022-11-06T22:06:45.195Z,19.02
2022-11-06T22:09:14.384Z,17.95
2022-11-06T22:11:44.003Z,19.73
2022-11-06T22:14:16.826Z,16.75
2022-11-06T22:16:46.844Z,15.45
2022-11-06T22:19:15.710Z,20.40
2022-11-06T22:21:43.292Z,16.23
2022-11-06T22:24:12.829Z,15.50
2022-11-06T22:26:41.314Z,15.50
2022-11-06T22:29:12.119Z,16.67
2022-11-06T22:31:39.641Z,15.35
2022-11-06T22:34:10.290Z,16.90
2022-11-06T22:36:37.788Z,15.40
2022-11-06T22:39:08.260Z,17.73
2022-11-06T22:41:36.685Z,16.10
2022-11-06T22:44:05.370Z,15.98
2022-11-06T22:46:34.022Z,14.07
2022-11-06T22:49:02.136Z,14.87
2022-11-06T22:51:31.935Z,14.73
2022-11-06T22:54:01.165Z,15.88
2022-11-06T22:56:30.487Z,18.65
2022-11-06T22:59:04.851Z,21.37
2022-11-06T23:01:37.221Z,19.12
2022-11-06T23:04:04.882Z,15.75
2022-11-06T23:06:33.063Z,16.32
2022-11-06T23:09:00.701Z,16.17
2022-11-06T23:11:30.341Z,14.78
2022-11-06T23:14:04.490Z,15.10
2022-11-06T23:16:48.424Z,15.50
2022-11-06T23:19:20.055Z,14.73
2022-11-06T23:21:47.644Z,14.43
2022-11-06T23:24:15.488Z,15.20
2022-11-06T23:26:44.138Z,15.90
2022-11-06T23:29:11.696Z,14.73
2022-11-06T23:31:40.559Z,15.55
2022-11-06T23:34:08.078Z,15.65
2022-11-06T23:36:35.606Z,12.07
2022-11-06T23:39:03.035Z,15.28
2022-11-06T23:41:43.099Z,17.67
2022-11-06T23:44:30.244Z,14.65
2022-11-06T23:46:58.061Z,14.07
2022-11-06T23:49:25.694Z,13.70
2022-11-06T23:51:53.640Z,16.95
2022-11-06T23:54:21.419Z,15.15
2022-11-06T23:56:49.240Z,15.43
2022-11-06T23:59:16.999Z,17.82
